.
WxDataArchive / Data Records for 2008-01-31
2008-01-30 January 2008 2008-02-01

Data Records for Thursday, 31 January 2008

Time	Temp	Chill	HIndex	Humid	Dewpt	 Wind 	HiWind	WindDir	Rain 	Barom 
-----	----	-----	------	-----	-----	------	------	-------	-----	----- 
00:00	10.7	10.7	10.7	73	3.8	0	0	---	0.00	30.353 
00:05	10.5	10.5	10.5	74	3.9	0	0	---	0.00	30.352 
00:10	10.4	10.4	10.4	74	3.8	0	0	---	0.00	30.353 
00:15	10.2	10.2	10.2	74	3.6	0	0	---	0.00	30.353 
00:20	10.0	10.0	10.0	75	3.7	0	0	---	0.00	30.354 
00:25	9.9	9.9	9.9	75	3.6	0	0	---	0.00	30.355 
00:30	9.7	9.7	9.7	75	3.4	0	0	---	0.00	30.355 
00:35	9.5	9.5	9.5	75	3.2	0	0	---	0.00	30.355 
00:40	9.5	9.5	9.5	76	3.5	0	0	---	0.00	30.355 
00:45	9.3	9.3	9.3	77	3.6	0	0	---	0.00	30.351 
00:50	9.3	9.3	9.3	77	3.6	0	0	---	0.00	30.353 
00:55	9.2	9.2	9.2	77	3.5	0	0	---	0.00	30.354 
01:00	9.2	9.2	9.2	77	3.5	0	0	---	0.00	30.354 
01:05	9.0	9.0	9.0	77	3.3	0	0	---	0.00	30.355 
01:10	8.8	8.8	8.8	78	3.4	0	0	---	0.00	30.358 
01:15	8.8	8.8	8.8	79	3.6	0	0	---	0.00	30.357 
01:20	9.0	9.0	9.0	79	3.8	0	0	---	0.00	30.356 
01:25	9.0	9.0	9.0	79	3.8	0	0	---	0.00	30.368 
01:30	8.8	8.8	8.8	80	3.9	0	0	---	0.00	30.369 
01:35	8.8	8.8	8.8	80	3.9	0	0	---	0.00	30.371 
01:40	8.8	8.8	8.8	80	3.9	0	0	---	0.00	30.370 
01:45	9.0	9.0	9.0	81	4.4	0	0	---	0.00	30.368 
01:50	9.2	9.2	9.2	81	4.6	0	0	---	0.00	30.367 
01:55	9.3	9.3	9.3	81	4.7	0	1	248	0.00	30.363 
02:00	9.3	9.3	9.3	80	4.4	0	0	---	0.00	30.359 
02:05	9.2	9.2	9.2	80	4.3	0	0	---	0.00	30.367 
02:10	9.3	9.3	9.3	81	4.7	0	2	248	0.00	30.394 
02:15	9.7	9.7	9.7	81	5.1	0	1	248	0.00	30.385 
02:20	10.2	10.2	10.2	81	5.6	0	2	248	0.00	30.392 
02:25	10.5	10.5	10.5	80	5.6	0	0	---	0.00	30.397 
02:30	10.9	10.9	10.9	78	5.4	0	1	248	0.00	30.396 
02:35	10.9	10.9	10.9	77	5.1	0	0	---	0.00	30.393 
02:40	10.9	10.9	10.9	77	5.1	0	0	---	0.00	30.382 
02:45	10.9	10.9	10.9	76	4.8	0	0	---	0.00	30.382 
02:50	10.9	10.9	10.9	76	4.8	0	0	---	0.00	30.381 
02:55	10.7	10.7	10.7	76	4.7	0	0	---	0.00	30.382 
03:00	10.7	10.7	10.7	76	4.7	0	0	---	0.00	30.383 
03:05	10.5	10.5	10.5	76	4.5	0	0	---	0.00	30.387 
03:10	10.4	10.4	10.4	76	4.4	0	0	---	0.00	30.390 
03:15	10.2	10.2	10.2	77	4.5	0	0	---	0.00	30.395 
03:20	10.2	10.2	10.2	77	4.5	0	0	---	0.00	30.398 
03:25	10.0	10.0	10.0	77	4.3	0	0	---	0.00	30.400 
03:30	9.9	9.9	9.9	77	4.2	0	0	---	0.00	30.399 
03:35	9.9	9.9	9.9	77	4.2	0	0	---	0.00	30.398 
03:40	9.7	9.7	9.7	78	4.2	0	0	---	0.00	30.399 
03:45	9.7	9.7	9.7	78	4.2	0	0	---	0.00	30.398 
03:50	9.5	9.5	9.5	79	4.3	0	0	---	0.00	30.397 
03:55	9.3	9.3	9.3	79	4.1	0	0	---	0.00	30.397 
04:00	9.2	9.2	9.2	79	4.0	0	0	---	0.00	30.396 
04:05	9.2	9.2	9.2	79	4.0	0	0	---	0.00	30.398 
04:10	9.0	9.0	9.0	79	3.8	0	0	---	0.00	30.399 
04:15	9.0	9.0	9.0	80	4.1	0	0	---	0.00	30.399 
04:20	9.0	9.0	9.0	80	4.1	0	0	---	0.00	30.400 
04:25	8.8	8.8	8.8	80	3.9	0	0	---	0.00	30.400 
04:30	8.8	8.8	8.8	80	3.9	0	0	---	0.00	30.405 
04:35	8.8	8.8	8.8	81	4.2	0	0	---	0.00	30.404 
04:40	8.8	8.8	8.8	81	4.2	0	0	---	0.00	30.409 
04:45	8.8	8.8	8.8	81	4.2	0	0	---	0.00	30.412 
04:50	8.6	8.6	8.6	81	4.0	0	0	---	0.00	30.414 
04:55	8.6	8.6	8.6	81	4.0	0	0	---	0.00	30.412 
05:00	8.6	8.6	8.6	81	4.0	0	0	---	0.00	30.408 
05:05	8.6	8.6	8.6	81	4.0	0	0	---	0.00	30.416 
05:10	8.6	8.6	8.6	82	4.3	0	0	---	0.00	30.421 
05:15	8.6	8.6	8.6	82	4.3	0	0	---	0.00	30.424 
05:20	8.6	8.6	8.6	82	4.3	0	0	---	0.00	30.422 
05:25	8.8	8.8	8.8	82	4.5	0	0	---	0.00	30.424 
05:30	8.8	8.8	8.8	82	4.5	0	0	---	0.00	30.423 
05:35	8.8	8.8	8.8	82	4.5	0	0	---	0.00	30.423 
05:40	9.0	9.0	9.0	82	4.6	0	0	---	0.00	30.429 
05:45	9.0	9.0	9.0	82	4.6	0	0	---	0.00	30.432 
05:50	9.2	9.2	9.2	83	5.1	0	0	---	0.00	30.436 
05:55	9.3	9.3	9.3	83	5.2	0	0	---	0.00	30.438 
06:00	9.5	9.5	9.5	83	5.4	0	0	---	0.00	30.440 
06:05	9.7	9.7	9.7	84	5.9	0	0	---	0.00	30.440 
06:10	10.2	10.2	10.2	84	6.3	0	0	---	0.00	30.442 
06:15	10.5	10.5	10.5	84	6.6	0	1	248	0.00	30.443 
06:20	11.1	11.1	11.1	84	7.2	0	1	248	0.00	30.441 
06:25	11.4	11.4	11.4	83	7.3	0	1	248	0.00	30.444 
06:30	11.7	11.7	11.7	82	7.3	0	2	248	0.00	30.446 
06:35	12.1	12.1	12.1	81	7.4	0	1	248	0.00	30.452 
06:40	12.3	12.3	12.3	80	7.3	0	1	248	0.00	30.458 
06:45	12.4	12.4	12.4	79	7.2	0	0	---	0.00	30.463 
06:50	12.6	12.6	12.6	78	7.1	0	0	---	0.00	30.467 
06:55	12.8	12.8	12.8	77	7.0	0	1	248	0.00	30.469 
07:00	12.8	12.8	12.8	76	6.7	0	1	248	0.00	30.463 
07:05	12.9	12.9	12.9	76	6.8	0	1	248	0.00	30.463 
07:10	13.1	13.1	13.1	76	7.0	0	1	248	0.00	30.471 
07:15	13.3	13.3	13.3	75	6.9	0	1	248	0.00	30.475 
07:20	13.3	13.3	13.3	74	6.6	1	2	248	0.00	30.475 
07:25	13.3	13.3	13.3	74	6.6	0	2	158	0.00	30.477 
07:30	13.5	13.5	13.5	73	6.5	0	1	158	0.00	30.475 
07:35	13.5	13.5	13.5	73	6.5	0	3	112	0.00	30.478 
07:40	13.5	13.5	13.5	73	6.5	0	1	112	0.00	30.481 
07:45	13.6	13.6	13.6	73	6.6	0	1	112	0.00	30.484 
07:50	13.6	13.6	13.6	72	6.3	1	3	112	0.00	30.479 
07:55	13.8	13.8	13.8	72	6.5	1	2	112	0.00	30.478 
08:00	14.0	14.0	14.0	72	6.7	1	2	112	0.00	30.475 
08:05	14.0	14.0	14.0	72	6.7	1	3	112	0.00	30.474 
08:10	14.1	14.1	14.1	72	6.8	0	3	112	0.00	30.477 
08:15	14.3	14.3	14.3	73	7.3	1	3	112	0.00	30.486 
08:20	14.3	14.3	14.3	73	7.3	1	3	90	0.00	30.488 
08:25	14.3	14.3	14.3	73	7.3	1	3	90	0.00	30.490 
08:30	14.3	14.3	14.3	73	7.3	1	4	90	0.00	30.493 
08:35	14.4	14.4	14.4	72	7.1	1	2	90	0.00	30.498 
08:40	14.6	14.6	14.6	72	7.2	1	4	90	0.00	30.498 
08:45	14.8	14.8	14.8	72	7.4	2	4	90	0.00	30.493 
08:50	14.9	14.9	14.9	73	7.8	1	3	90	0.00	30.490 
08:55	14.9	14.9	14.9	72	7.5	2	4	90	0.00	30.491 
09:00	15.1	15.1	15.1	71	7.4	2	4	112	0.00	30.491 
09:05	15.4	15.4	15.4	72	8.0	1	4	112	0.00	30.492 
09:10	15.4	15.4	15.4	72	8.0	2	6	112	0.00	30.490 
09:15	15.6	15.6	15.6	72	8.2	2	6	90	0.00	30.488 
09:20	15.7	15.7	15.7	73	8.6	1	5	112	0.00	30.486 
09:25	15.9	15.9	15.9	72	8.5	3	7	112	0.00	30.477 
09:30	16.1	16.1	16.1	72	8.7	2	6	90	0.00	30.483 
09:35	16.2	16.2	16.2	72	8.8	1	4	112	0.00	30.489 
09:40	16.4	16.4	16.4	72	9.0	2	6	90	0.00	30.493 
09:45	16.5	16.5	16.5	71	8.8	2	6	90	0.00	30.497 
09:50	16.7	16.7	16.7	70	8.6	3	6	112	0.00	30.501 
09:55	16.7	16.7	16.7	71	9.0	3	6	90	0.00	30.498 
10:00	16.9	16.9	16.9	70	8.8	2	5	112	0.00	30.497 
10:05	17.0	17.0	17.0	69	8.6	3	7	112	0.00	30.492 
10:10	17.2	17.2	17.2	69	8.8	3	6	112	0.00	30.493 
10:15	17.3	11.1	17.3	69	8.9	4	9	112	0.00	30.503 
10:20	17.5	17.5	17.5	69	9.1	3	6	112	0.00	30.504 
10:25	18.0	18.0	18.0	72	10.5	3	7	112	0.00	30.507 
10:30	18.3	12.3	18.3	66	8.9	4	9	112	0.00	30.506 
10:35	18.4	12.4	18.4	65	8.6	4	9	112	0.00	30.511 
10:40	18.6	12.6	18.6	66	9.2	4	10	112	0.00	30.504 
10:45	18.8	12.8	18.8	65	9.0	4	9	112	0.00	30.503 
10:50	18.9	18.9	18.9	65	9.1	3	7	112	0.00	30.506 
10:55	19.1	13.2	19.1	65	9.3	4	7	112	0.00	30.505 
11:00	19.2	13.3	19.2	65	9.4	4	9	112	0.00	30.506 
11:05	19.4	13.5	19.4	66	9.9	4	10	90	0.00	30.503 
11:10	19.4	13.5	19.4	65	9.6	4	7	90	0.00	30.503 
11:15	19.5	13.6	19.5	66	10.0	4	7	90	0.00	30.501 
11:20	19.5	13.6	19.5	65	9.7	4	11	90	0.00	30.503 
11:25	19.7	13.9	19.7	65	9.9	4	11	90	0.00	30.496 
11:30	19.7	12.6	19.7	67	10.5	5	11	112	0.00	30.488 
11:35	19.7	11.6	19.7	65	9.9	6	11	112	0.00	30.483 
11:40	19.7	12.6	19.7	65	9.9	5	11	112	0.00	30.487 
11:45	19.9	12.9	19.9	64	9.7	5	10	112	0.00	30.488 
11:50	20.0	13.0	20.0	65	10.2	5	11	112	0.00	30.487 
11:55	20.5	14.8	20.5	64	10.3	4	8	112	0.00	30.476 
12:00	20.6	14.9	20.6	63	10.0	4	10	112	0.00	30.471 
12:05	21.1	21.1	21.1	64	10.9	3	11	112	0.00	30.471 
12:10	20.8	12.9	20.8	62	9.9	6	11	90	0.00	30.467 
12:15	21.0	15.4	21.0	63	10.4	4	10	112	0.00	30.457 
12:20	21.0	13.1	21.0	63	10.4	6	12	90	0.00	30.455 
12:25	20.8	13.9	20.8	64	10.6	5	12	90	0.00	30.453 
12:30	21.0	14.2	21.0	63	10.4	5	11	112	0.00	30.453 
12:35	20.8	12.9	20.8	62	9.9	6	10	90	0.00	30.446 
12:40	20.8	13.9	20.8	62	9.9	5	10	112	0.00	30.440 
12:45	21.1	15.5	21.1	62	10.1	4	9	90	0.00	30.437 
12:50	21.1	14.3	21.1	62	10.1	5	10	90	0.00	30.435 
12:55	21.1	14.3	21.1	61	9.8	5	12	112	0.00	30.429 
13:00	21.3	15.7	21.3	62	10.3	4	14	112	0.00	30.426 
13:05	21.3	14.5	21.3	62	10.3	5	10	90	0.00	30.425 
13:10	21.4	15.8	21.4	61	10.1	4	9	112	0.00	30.425 
13:15	21.6	14.9	21.6	61	10.3	5	12	112	0.00	30.426 
13:20	21.8	21.8	21.8	62	10.8	3	7	112	0.00	30.422 
13:25	21.8	16.3	21.8	61	10.4	4	10	112	0.00	30.419 
13:30	21.9	15.2	21.9	61	10.5	5	11	112	0.00	30.410 
13:35	21.9	14.2	21.9	61	10.5	6	13	90	0.00	30.402 
13:40	22.1	14.4	22.1	61	10.7	6	12	112	0.00	30.394 
13:45	22.2	16.8	22.2	60	10.5	4	11	112	0.00	30.393 
13:50	22.4	17.0	22.4	60	10.6	4	11	90	0.00	30.393 
13:55	22.4	17.0	22.4	61	11.0	4	7	112	0.00	30.393 
14:00	22.5	17.1	22.5	60	10.7	4	12	112	0.00	30.390 
14:05	22.5	15.9	22.5	59	10.4	5	11	90	0.00	30.380 
14:10	22.7	16.2	22.7	59	10.6	5	11	112	0.00	30.375 
14:15	23.0	17.7	23.0	59	10.8	4	10	90	0.00	30.372 
14:20	23.2	16.7	23.2	59	11.0	5	10	112	0.00	30.372 
14:25	23.2	16.7	23.2	59	11.0	5	11	90	0.00	30.368 
14:30	23.2	16.7	23.2	58	10.6	5	12	112	0.00	30.359 
14:35	23.2	15.8	23.2	58	10.6	6	13	90	0.00	30.357 
14:40	23.2	15.8	23.2	58	10.6	6	13	112	0.00	30.352 
14:45	23.3	18.0	23.3	59	11.1	4	9	90	0.00	30.346 
14:50	23.6	17.2	23.6	58	11.0	5	12	112	0.00	30.343 
14:55	23.6	17.2	23.6	58	11.0	5	13	112	0.00	30.343 
15:00	23.8	18.6	23.8	57	10.8	4	9	112	0.00	30.340 
15:05	23.9	17.6	23.9	58	11.3	5	14	112	0.00	30.344 
15:10	23.9	18.7	23.9	59	11.7	4	12	112	0.00	30.344 
15:15	24.1	19.0	24.1	57	11.1	4	10	112	0.00	30.343 
15:20	24.1	17.8	24.1	56	10.7	5	11	112	0.00	30.332 
15:25	24.1	19.0	24.1	58	11.5	4	11	112	0.00	30.329 
15:30	24.1	19.0	24.1	57	11.1	4	10	45	0.00	30.325 
15:35	24.2	19.1	24.2	57	11.2	4	9	112	0.00	30.322 
15:40	24.2	16.1	24.2	55	10.4	7	17	112	0.00	30.324 
15:45	24.4	19.3	24.4	56	11.0	4	10	112	0.00	30.327 
15:50	24.4	18.1	24.4	56	11.0	5	11	112	0.00	30.325 
15:55	24.5	24.5	24.5	56	11.1	2	6	22	0.00	30.320 
16:00	24.5	24.5	24.5	57	11.5	3	11	112	0.00	30.318 
16:05	24.4	19.3	24.4	57	11.4	4	12	112	0.00	30.315 
16:10	24.4	17.2	24.4	57	11.4	6	13	112	0.00	30.315 
16:15	24.2	17.9	24.2	58	11.6	5	12	112	0.00	30.313 
16:20	24.2	19.1	24.2	58	11.6	4	11	112	0.00	30.312 
16:25	24.2	19.1	24.2	57	11.2	4	10	112	0.00	30.306 
16:30	24.2	19.1	24.2	57	11.2	4	11	112	0.00	30.309 
16:35	24.2	17.9	24.2	56	10.8	5	15	112	0.00	30.311 
16:40	24.2	17.9	24.2	58	11.6	5	14	112	0.00	30.304 
16:45	24.2	19.1	24.2	58	11.6	4	10	112	0.00	30.300 
16:50	24.2	17.9	24.2	57	11.2	5	14	112	0.00	30.299 
16:55	24.2	19.1	24.2	56	10.8	4	13	112	0.00	30.300 
17:00	24.2	17.9	24.2	56	10.8	5	14	112	0.00	30.303 
17:05	24.2	17.9	24.2	57	11.2	5	16	112	0.00	30.303 
17:10	24.2	24.2	24.2	56	10.8	3	13	68	0.00	30.308 
17:15	24.2	17.9	24.2	56	10.8	5	11	112	0.00	30.306 
17:20	24.2	17.9	24.2	56	10.8	5	14	112	0.00	30.306 
17:25	24.2	19.1	24.2	56	10.8	4	11	112	0.00	30.299 
17:30	24.2	19.1	24.2	56	10.8	4	12	45	0.00	30.297 
17:35	24.2	24.2	24.2	56	10.8	3	11	90	0.00	30.297 
17:40	24.2	19.1	24.2	55	10.4	4	11	112	0.00	30.304 
17:45	24.4	24.4	24.4	56	11.0	2	6	112	0.00	30.307 
17:50	24.4	19.3	24.4	56	11.0	4	11	112	0.00	30.295 
17:55	24.4	19.3	24.4	58	11.8	4	14	112	0.00	30.290 
18:00	24.4	24.4	24.4	58	11.8	3	9	112	0.00	30.292 
18:05	24.4	19.3	24.4	58	11.8	4	11	90	0.00	30.290 
18:10	24.4	19.3	24.4	59	12.2	4	14	112	0.00	30.292 
18:15	24.4	24.4	24.4	61	12.9	3	6	112	0.00	30.289 
18:20	24.4	24.4	24.4	61	12.9	3	10	112	0.00	30.281 
18:25	24.2	24.2	24.2	61	12.7	3	7	90	0.00	30.278 
18:30	24.1	24.1	24.1	61	12.6	3	9	45	0.00	30.276 
18:35	23.9	18.7	23.9	59	11.7	4	10	112	0.00	30.264 
18:40	23.8	17.4	23.8	58	11.2	5	11	112	0.00	30.258 
18:45	23.6	16.2	23.6	59	11.4	6	15	112	0.00	30.256 
18:50	23.5	17.1	23.5	59	11.3	5	12	112	0.00	30.261 
18:55	23.5	16.1	23.5	60	11.7	6	14	112	0.00	30.254 
19:00	23.3	15.0	23.3	61	11.9	7	16	112	0.00	30.245 
19:05	23.2	17.9	23.2	62	12.1	4	11	112	0.00	30.247 
19:10	23.0	15.5	23.0	63	12.3	6	15	112	0.00	30.245 
19:15	22.9	15.4	22.9	65	12.9	6	12	112	0.00	30.246 
19:20	22.7	15.2	22.7	65	12.7	6	16	112	0.00	30.246 
19:25	22.7	14.3	22.7	66	13.1	7	16	112	0.00	30.244 
19:30	22.5	14.9	22.5	67	13.2	6	15	112	0.00	30.246 
19:35	22.5	14.9	22.5	67	13.2	6	15	112	0.00	30.243 
19:40	22.5	14.9	22.5	67	13.2	6	12	112	0.00	30.244 
19:45	22.4	12.5	22.4	67	13.1	9	16	112	0.00	30.244 
19:50	22.4	13.2	22.4	68	13.5	8	14	112	0.00	30.242 
19:55	22.4	13.9	22.4	68	13.5	7	16	112	0.00	30.233 
20:00	22.4	15.8	22.4	69	13.8	5	13	112	0.00	30.221 
20:05	22.4	13.9	22.4	68	13.5	7	17	112	0.00	30.217 
20:10	22.5	15.9	22.5	68	13.6	5	18	112	0.00	30.226 
20:15	22.5	15.9	22.5	68	13.6	5	13	112	0.00	30.222 
20:20	22.5	15.9	22.5	68	13.6	5	12	112	0.00	30.210 
20:25	22.5	17.1	22.5	68	13.6	4	12	112	0.00	30.201 
20:30	22.7	22.7	22.7	68	13.8	3	10	112	0.00	30.202 
20:35	22.7	17.3	22.7	68	13.8	4	13	112	0.00	30.197 
20:40	22.7	14.3	22.7	68	13.8	7	16	112	0.00	30.189 
20:45	22.7	15.2	22.7	68	13.8	6	15	112	0.00	30.181 
20:50	22.9	13.8	22.9	69	14.3	8	15	112	0.00	30.179 
20:55	22.9	15.4	22.9	69	14.3	6	18	112	0.00	30.180 
21:00	22.9	16.4	22.9	70	14.6	5	12	90	0.00	30.181 
21:05	23.0	15.5	23.0	70	14.7	6	14	112	0.00	30.183 
21:10	23.0	14.7	23.0	70	14.7	7	14	112	0.00	30.187 
21:15	23.0	15.5	23.0	70	14.7	6	12	112	0.00	30.192 
21:20	23.2	14.9	23.2	70	14.9	7	13	112	0.00	30.195 
21:25	23.2	14.9	23.2	70	14.9	7	13	112	0.00	30.193 
21:30	23.3	16.9	23.3	70	15.0	5	10	112	0.00	30.189 
21:35	23.3	15.9	23.3	70	15.0	6	15	112	0.00	30.179 
21:40	23.5	15.3	23.5	71	15.5	7	16	90	0.00	30.168 
21:45	23.3	16.9	23.3	74	16.3	5	14	112	0.00	30.162 
21:50	23.2	16.7	23.2	77	17.1	5	16	112	0.00	30.151 
21:55	22.9	15.4	22.9	80	17.7	6	12	112	0.00	30.152 
22:00	22.7	16.2	22.7	82	18.0	5	12	112	0.00	30.150 
22:05	22.7	14.3	22.7	84	18.6	7	13	112	0.00	30.146 
22:10	22.7	15.2	22.7	84	18.6	6	14	112	0.00	30.146 
22:15	22.7	15.2	22.7	85	18.9	6	11	112	0.00	30.145 
22:20	22.7	15.2	22.7	86	19.2	6	14	112	0.00	30.140 
22:25	22.9	15.4	22.9	86	19.4	6	13	112	0.00	30.133 
22:30	22.9	14.5	22.9	87	19.6	7	15	112	0.00	30.133 
22:35	22.9	14.5	22.9	87	19.6	7	14	90	0.00	30.128 
22:40	22.9	15.4	22.9	87	19.6	6	13	112	0.00	30.129 
22:45	22.9	14.5	22.9	87	19.6	7	15	112	0.00	30.129 
22:50	23.0	15.5	23.0	87	19.7	6	14	112	0.00	30.130 
22:55	23.0	14.7	23.0	87	19.7	7	14	112	0.00	30.129 
23:00	23.0	15.5	23.0	88	20.0	6	13	112	0.00	30.132 
23:05	23.0	14.7	23.0	88	20.0	7	14	112	0.00	30.127 
23:10	23.0	15.5	23.0	88	20.0	6	13	112	0.00	30.112 
23:15	23.0	15.5	23.0	89	20.3	6	14	112	0.00	30.108 
23:20	23.0	15.5	23.0	89	20.3	6	14	112	0.00	30.101 
23:25	23.0	15.5	23.0	89	20.3	6	14	112	0.00	30.095 
23:30	23.0	16.5	23.0	89	20.3	5	12	112	0.00	30.088 
23:35	23.2	15.8	23.2	90	20.7	6	12	112	0.00	30.079 
23:40	23.2	14.9	23.2	90	20.7	7	16	112	0.00	30.075 
23:45	23.2	15.8	23.2	90	20.7	6	14	112	0.00	30.066 
23:50	23.2	16.7	23.2	90	20.7	5	15	112	0.00	30.064 
23:55	23.3	15.0	23.3	89	20.5	7	16	112	0.00	30.063 

CoCoRaHS
IN-AL-39
A2 Web Hosting
Creative Commons License
GoDaddy
Look for:

loaded 2017-12-13 09:58:07 • last modified 2010-11-18 10:43:29
Privacy PolicyDisclaimer
• wx.awcolley.com is powered by PmWiki v.2002016 •
• all content (unless otherwise noted) © 2017 A W Colley